sensor_id;sensor_type;location;lat;lon;timestamp;pressure;altitude;pressure_sealevel;temperature;humidity
35489;BME280;21602;55.670;37.578;2023-11-21T00:00:31;98652.47;;;-7.37;74.85
35489;BME280;21602;55.670;37.578;2023-11-21T00:02:57;98636.94;;;-7.47;74.86
35489;BME280;21602;55.670;37.578;2023-11-21T00:05:22;98633.25;;;-7.44;74.84
35489;BME280;21602;55.670;37.578;2023-11-21T00:07:48;98637.88;;;-7.57;74.92
35489;BME280;21602;55.670;37.578;2023-11-21T00:10:14;98642.91;;;-7.65;75.12
35489;BME280;21602;55.670;37.578;2023-11-21T00:12:43;98640.31;;;-7.65;75.11
35489;BME280;21602;55.670;37.578;2023-11-21T00:15:09;98644.13;;;-7.69;75.20
35489;BME280;21602;55.670;37.578;2023-11-21T00:17:37;98651.50;;;-7.75;75.58
35489;BME280;21602;55.670;37.578;2023-11-21T00:20:08;98652.03;;;-7.81;75.54
35489;BME280;21602;55.670;37.578;2023-11-21T00:22:34;98645.38;;;-7.74;75.74
35489;BME280;21602;55.670;37.578;2023-11-21T00:25:00;98623.00;;;-7.75;75.21
35489;BME280;21602;55.670;37.578;2023-11-21T00:27:25;98636.50;;;-7.61;75.52
35489;BME280;21602;55.670;37.578;2023-11-21T00:29:51;98634.06;;;-7.63;75.14
35489;BME280;21602;55.670;37.578;2023-11-21T00:32:17;98638.69;;;-7.57;75.13
35489;BME280;21602;55.670;37.578;2023-11-21T00:34:42;98640.34;;;-7.56;75.17
35489;BME280;21602;55.670;37.578;2023-11-21T00:37:08;98637.34;;;-7.61;75.39
35489;BME280;21602;55.670;37.578;2023-11-21T00:39:34;98640.06;;;-7.53;75.05
35489;BME280;21602;55.670;37.578;2023-11-21T00:42:00;98635.16;;;-7.46;74.84
35489;BME280;21602;55.670;37.578;2023-11-21T00:44:26;98637.34;;;-7.41;74.39
35489;BME280;21602;55.670;37.578;2023-11-21T00:46:52;98632.69;;;-7.38;74.42
35489;BME280;21602;55.670;37.578;2023-11-21T00:49:19;98626.16;;;-7.42;74.27
35489;BME280;21602;55.670;37.578;2023-11-21T00:51:46;98629.03;;;-7.55;74.78
35489;BME280;21602;55.670;37.578;2023-11-21T00:54:11;98631.88;;;-7.67;75.15
35489;BME280;21602;55.670;37.578;2023-11-21T00:56:37;98634.59;;;-7.79;75.49
35489;BME280;21602;55.670;37.578;2023-11-21T00:59:04;98644.00;;;-7.78;75.70
35489;BME280;21602;55.670;37.578;2023-11-21T01:01:30;98629.97;;;-7.65;75.76
35489;BME280;21602;55.670;37.578;2023-11-21T01:03:56;98622.88;;;-7.63;75.41
35489;BME280;21602;55.670;37.578;2023-11-21T01:06:22;98631.63;;;-7.55;75.11
35489;BME280;21602;55.670;37.578;2023-11-21T01:08:47;98636.09;;;-7.47;75.10
35489;BME280;21602;55.670;37.578;2023-11-21T01:11:13;98631.88;;;-7.67;75.36
35489;BME280;21602;55.670;37.578;2023-11-21T01:13:40;98634.19;;;-7.64;75.43
35489;BME280;21602;55.670;37.578;2023-11-21T01:16:06;98640.88;;;-7.71;75.63
35489;BME280;21602;55.670;37.578;2023-11-21T01:18:34;98634.63;;;-7.69;75.49
35489;BME280;21602;55.670;37.578;2023-11-21T01:21:00;98635.44;;;-7.59;75.25
35489;BME280;21602;55.670;37.578;2023-11-21T01:23:26;98635.69;;;-7.52;75.05
35489;BME280;21602;55.670;37.578;2023-11-21T01:25:52;98632.16;;;-7.51;74.88
35489;BME280;21602;55.670;37.578;2023-11-21T01:28:19;98626.00;;;-7.60;75.11
35489;BME280;21602;55.670;37.578;2023-11-21T01:30:45;98619.34;;;-7.72;75.34
35489;BME280;21602;55.670;37.578;2023-11-21T01:33:11;98634.31;;;-7.66;75.69
35489;BME280;21602;55.670;37.578;2023-11-21T01:35:37;98623.16;;;-7.57;75.29
35489;BME280;21602;55.670;37.578;2023-11-21T01:38:02;98632.28;;;-7.62;75.41
35489;BME280;21602;55.670;37.578;2023-11-21T01:40:29;98623.81;;;-7.64;75.57
35489;BME280;21602;55.670;37.578;2023-11-21T01:42:56;98620.97;;;-7.61;75.55
35489;BME280;21602;55.670;37.578;2023-11-21T01:45:22;98634.88;;;-7.62;75.61
35489;BME280;21602;55.670;37.578;2023-11-21T01:47:50;98635.44;;;-7.59;75.64
35489;BME280;21602;55.670;37.578;2023-11-21T01:50:16;98625.06;;;-7.49;75.51
35489;BME280;21602;55.670;37.578;2023-11-21T01:52:46;98627.53;;;-7.48;75.51
35489;BME280;21602;55.670;37.578;2023-11-21T01:55:12;98649.06;;;-7.37;74.92
35489;BME280;21602;55.670;37.578;2023-11-21T01:57:40;98642.25;;;-7.38;74.74
35489;BME280;21602;55.670;37.578;2023-11-21T02:00:06;98639.25;;;-7.43;74.52
35489;BME280;21602;55.670;37.578;2023-11-21T02:02:44;98643.06;;;-7.57;74.21
35489;BME280;21602;55.670;37.578;2023-11-21T02:05:14;98648.25;;;-7.77;74.63
35489;BME280;21602;55.670;37.578;2023-11-21T02:07:43;98644.69;;;-7.85;74.88
35489;BME280;21602;55.670;37.578;2023-11-21T02:10:11;98608.78;;;-8.00;74.92
35489;BME280;21602;55.670;37.578;2023-11-21T02:12:57;98640.41;;;-8.06;75.21
35489;BME280;21602;55.670;37.578;2023-11-21T02:15:24;98652.56;;;-8.06;75.14
35489;BME280;21602;55.670;37.578;2023-11-21T02:17:54;98643.84;;;-7.95;74.75
35489;BME280;21602;55.670;37.578;2023-11-21T02:20:21;98648.63;;;-7.91;74.43
35489;BME280;21602;55.670;37.578;2023-11-21T02:25:32;98635.69;;;-7.91;74.33
35489;BME280;21602;55.670;37.578;2023-11-21T02:27:59;98645.78;;;-7.88;74.14
35489;BME280;21602;55.670;37.578;2023-11-21T02:30:25;98642.19;;;-8.06;73.71
35489;BME280;21602;55.670;37.578;2023-11-21T02:32:51;98633.47;;;-8.05;73.97
35489;BME280;21602;55.670;37.578;2023-11-21T02:35:20;98640.66;;;-8.09;73.35
35489;BME280;21602;55.670;37.578;2023-11-21T02:37:47;98640.41;;;-8.15;73.65
35489;BME280;21602;55.670;37.578;2023-11-21T02:40:12;98640.81;;;-8.10;73.49
35489;BME280;21602;55.670;37.578;2023-11-21T02:42:39;98650.06;;;-8.08;73.24
35489;BME280;21602;55.670;37.578;2023-11-21T02:45:05;98643.13;;;-8.07;73.31
35489;BME280;21602;55.670;37.578;2023-11-21T02:47:31;98645.72;;;-8.07;73.39
35489;BME280;21602;55.670;37.578;2023-11-21T02:49:57;98644.91;;;-7.98;73.49
35489;BME280;21602;55.670;37.578;2023-11-21T02:52:22;98653.25;;;-7.94;73.17
35489;BME280;21602;55.670;37.578;2023-11-21T02:54:49;98640.53;;;-8.07;73.52
35489;BME280;21602;55.670;37.578;2023-11-21T02:57:14;98664.72;;;-7.97;73.52
35489;BME280;21602;55.670;37.578;2023-11-21T02:59:40;98658.84;;;-7.89;73.15
35489;BME280;21602;55.670;37.578;2023-11-21T03:02:06;98680.50;;;-8.00;72.08
35489;BME280;21602;55.670;37.578;2023-11-21T03:04:36;98656.09;;;-7.97;71.87
35489;BME280;21602;55.670;37.578;2023-11-21T03:07:02;98665.91;;;-8.11;71.64
35489;BME280;21602;55.670;37.578;2023-11-21T03:09:29;98685.25;;;-8.05;71.64
35489;BME280;21602;55.670;37.578;2023-11-21T03:11:54;98679.84;;;-8.02;71.17
35489;BME280;21602;55.670;37.578;2023-11-21T03:14:20;98673.09;;;-8.14;71.06
35489;BME280;21602;55.670;37.578;2023-11-21T03:16:47;98673.50;;;-8.19;71.30
35489;BME280;21602;55.670;37.578;2023-11-21T03:19:12;98656.06;;;-8.07;71.21
35489;BME280;21602;55.670;37.578;2023-11-21T03:21:40;98675.31;;;-8.00;70.69
35489;BME280;21602;55.670;37.578;2023-11-21T03:24:06;98664.00;;;-7.99;70.98
35489;BME280;21602;55.670;37.578;2023-11-21T03:26:33;98672.06;;;-8.02;70.94
35489;BME280;21602;55.670;37.578;2023-11-21T03:28:59;98673.28;;;-8.06;71.04
35489;BME280;21602;55.670;37.578;2023-11-21T03:31:25;98677.72;;;-8.18;71.40
35489;BME280;21602;55.670;37.578;2023-11-21T03:33:52;98684.91;;;-8.21;71.65
35489;BME280;21602;55.670;37.578;2023-11-21T03:36:19;98687.25;;;-8.18;72.02
35489;BME280;21602;55.670;37.578;2023-11-21T03:38:45;98696.84;;;-8.09;71.89
35489;BME280;21602;55.670;37.578;2023-11-21T03:41:10;98694.38;;;-8.11;71.92
35489;BME280;21602;55.670;37.578;2023-11-21T03:43:36;98684.91;;;-8.21;72.48
35489;BME280;21602;55.670;37.578;2023-11-21T03:46:02;98686.84;;;-8.23;73.35
35489;BME280;21602;55.670;37.578;2023-11-21T03:48:28;98683.44;;;-8.24;73.04
35489;BME280;21602;55.670;37.578;2023-11-21T03:50:53;98687.38;;;-8.30;73.77
35489;BME280;21602;55.670;37.578;2023-11-21T03:53:19;98677.81;;;-8.29;73.75
35489;BME280;21602;55.670;37.578;2023-11-21T03:55:45;98687.75;;;-8.34;74.18
35489;BME280;21602;55.670;37.578;2023-11-21T03:58:11;98681.47;;;-8.32;74.11
35489;BME280;21602;55.670;37.578;2023-11-21T04:00:36;98684.06;;;-8.32;74.25
35489;BME280;21602;55.670;37.578;2023-11-21T04:03:02;98689.97;;;-8.30;74.19
35489;BME280;21602;55.670;37.578;2023-11-21T04:05:29;98687.38;;;-8.30;74.46
35489;BME280;21602;55.670;37.578;2023-11-21T04:07:55;98695.13;;;-8.30;74.48
35489;BME280;21602;55.670;37.578;2023-11-21T04:10:20;98696.38;;;-8.24;74.81
35489;BME280;21602;55.670;37.578;2023-11-21T04:12:47;98695.56;;;-8.25;74.52
35489;BME280;21602;55.670;37.578;2023-11-21T04:15:13;98698.00;;;-8.23;74.34
35489;BME280;21602;55.670;37.578;2023-11-21T04:17:39;98700.16;;;-8.28;74.86
35489;BME280;21602;55.670;37.578;2023-11-21T04:20:05;98673.72;;;-8.32;74.95
35489;BME280;21602;55.670;37.578;2023-11-21T04:22:41;98682.63;;;-8.25;74.79
35489;BME280;21602;55.670;37.578;2023-11-21T04:25:09;98689.47;;;-8.14;74.64
35489;BME280;21602;55.670;37.578;2023-11-21T04:27:36;98697.97;;;-8.02;74.36
35489;BME280;21602;55.670;37.578;2023-11-21T04:30:02;98694.03;;;-7.96;74.10
35489;BME280;21602;55.670;37.578;2023-11-21T04:32:28;98694.41;;;-8.01;74.33
35489;BME280;21602;55.670;37.578;2023-11-21T04:34:53;98693.72;;;-8.03;74.22
35489;BME280;21602;55.670;37.578;2023-11-21T04:37:19;98699.44;;;-8.09;74.37
35489;BME280;21602;55.670;37.578;2023-11-21T04:39:44;98696.66;;;-8.17;74.55
35489;BME280;21602;55.670;37.578;2023-11-21T04:42:10;98699.97;;;-8.15;74.76
35489;BME280;21602;55.670;37.578;2023-11-21T04:44:36;98711.97;;;-8.05;74.50
35489;BME280;21602;55.670;37.578;2023-11-21T04:47:01;98714.16;;;-8.10;74.44
35489;BME280;21602;55.670;37.578;2023-11-21T04:49:30;98712.13;;;-8.06;74.59
35489;BME280;21602;55.670;37.578;2023-11-21T04:51:55;98709.38;;;-8.05;74.35
35489;BME280;21602;55.670;37.578;2023-11-21T04:54:21;98717.03;;;-8.03;74.22
35489;BME280;21602;55.670;37.578;2023-11-21T04:56:46;98693.25;;;-8.18;74.43
35489;BME280;21602;55.670;37.578;2023-11-21T04:59:12;98708.13;;;-8.20;74.74
35489;BME280;21602;55.670;37.578;2023-11-21T05:01:38;98723.94;;;-8.13;74.83
35489;BME280;21602;55.670;37.578;2023-11-21T05:04:04;98718.75;;;-8.13;74.55
35489;BME280;21602;55.670;37.578;2023-11-21T05:06:31;98728.97;;;-8.12;74.71
35489;BME280;21602;55.670;37.578;2023-11-21T05:08:58;98727.34;;;-8.13;74.81
35489;BME280;21602;55.670;37.578;2023-11-21T05:11:27;98733.69;;;-8.27;74.90
35489;BME280;21602;55.670;37.578;2023-11-21T05:13:53;98728.03;;;-8.20;75.29
35489;BME280;21602;55.670;37.578;2023-11-21T05:16:21;98741.63;;;-8.18;75.26
35489;BME280;21602;55.670;37.578;2023-11-21T05:18:47;98718.75;;;-8.13;75.19
35489;BME280;21602;55.670;37.578;2023-11-21T05:21:15;98735.16;;;-8.03;74.81
35489;BME280;21602;55.670;37.578;2023-11-21T05:23:40;98732.03;;;-8.07;74.79
35489;BME280;21602;55.670;37.578;2023-11-21T05:26:06;98730.75;;;-8.12;74.90
35489;BME280;21602;55.670;37.578;2023-11-21T05:28:32;98717.09;;;-8.24;75.08
35489;BME280;21602;55.670;37.578;2023-11-21T05:30:58;98726.06;;;-8.38;75.57
35489;BME280;21602;55.670;37.578;2023-11-21T05:33:23;98742.66;;;-8.40;76.10
35489;BME280;21602;55.670;37.578;2023-11-21T05:35:50;98717.88;;;-8.33;75.86
35489;BME280;21602;55.670;37.578;2023-11-21T05:38:16;98715.84;;;-8.30;75.69
35489;BME280;21602;55.670;37.578;2023-11-21T05:40:41;98715.47;;;-8.25;75.73
35489;BME280;21602;55.670;37.578;2023-11-21T05:43:07;98730.19;;;-8.26;75.63
35489;BME280;21602;55.670;37.578;2023-11-21T05:45:32;98730.13;;;-8.35;76.05
35489;BME280;21602;55.670;37.578;2023-11-21T05:51:07;98737.50;;;-8.31;76.41
35489;BME280;21602;55.670;37.578;2023-11-21T05:53:37;98746.97;;;-8.20;76.42
35489;BME280;21602;55.670;37.578;2023-11-21T05:56:03;98741.00;;;-8.11;76.17
35489;BME280;21602;55.670;37.578;2023-11-21T05:58:32;98743.19;;;-8.06;75.99
35489;BME280;21602;55.670;37.578;2023-11-21T06:00:58;98749.19;;;-8.06;75.90
35489;BME280;21602;55.670;37.578;2023-11-21T06:03:26;98741.72;;;-7.99;75.81
35489;BME280;21602;55.670;37.578;2023-11-21T06:05:55;98740.75;;;-7.98;75.70
35489;BME280;21602;55.670;37.578;2023-11-21T06:08:21;98743.63;;;-8.01;75.60
35489;BME280;21602;55.670;37.578;2023-11-21T06:10:46;98759.59;;;-7.96;75.44
35489;BME280;21602;55.670;37.578;2023-11-21T06:13:15;98762.44;;;-7.99;75.60
35489;BME280;21602;55.670;37.578;2023-11-21T06:15:43;98762.72;;;-8.02;76.35
35489;BME280;21602;55.670;37.578;2023-11-21T06:18:13;98768.47;;;-7.89;76.09
35489;BME280;21602;55.670;37.578;2023-11-21T06:20:42;98761.13;;;-7.84;75.60
35489;BME280;21602;55.670;37.578;2023-11-21T06:23:08;98755.63;;;-8.00;75.72
35489;BME280;21602;55.670;37.578;2023-11-21T06:25:37;98763.34;;;-8.10;76.40
35489;BME280;21602;55.670;37.578;2023-11-21T06:28:05;98775.41;;;-7.99;76.32
35489;BME280;21602;55.670;37.578;2023-11-21T06:30:31;98763.66;;;-8.03;75.54
35489;BME280;21602;55.670;37.578;2023-11-21T06:32:57;98757.25;;;-7.99;75.84
35489;BME280;21602;55.670;37.578;2023-11-21T06:35:23;98750.06;;;-7.95;75.44
35489;BME280;21602;55.670;37.578;2023-11-21T06:37:53;98759.22;;;-7.91;75.44
35489;BME280;21602;55.670;37.578;2023-11-21T06:40:19;98764.81;;;-7.86;75.46
35489;BME280;21602;55.670;37.578;2023-11-21T06:42:47;98769.56;;;-7.91;75.36
35489;BME280;21602;55.670;37.578;2023-11-21T06:45:13;98770.25;;;-7.89;75.43
35489;BME280;21602;55.670;37.578;2023-11-21T06:47:40;98775.19;;;-7.86;75.16
35489;BME280;21602;55.670;37.578;2023-11-21T06:50:06;98774.50;;;-7.79;75.22
35489;BME280;21602;55.670;37.578;2023-11-21T06:52:32;98770.47;;;-7.62;75.35
35489;BME280;21602;55.670;37.578;2023-11-21T06:55:02;98776.25;;;-7.49;74.54
35489;BME280;21602;55.670;37.578;2023-11-21T06:57:29;98774.56;;;-7.69;74.29
35489;BME280;21602;55.670;37.578;2023-11-21T06:59:58;98766.41;;;-7.95;74.63
35489;BME280;21602;55.670;37.578;2023-11-21T07:02:24;98764.63;;;-7.94;74.62
35489;BME280;21602;55.670;37.578;2023-11-21T07:04:51;98782.31;;;-8.09;74.80
35489;BME280;21602;55.670;37.578;2023-11-21T07:07:18;98772.16;;;-8.22;75.70
35489;BME280;21602;55.670;37.578;2023-11-21T07:09:43;98764.50;;;-8.23;75.53
35489;BME280;21602;55.670;37.578;2023-11-21T07:12:09;98778.59;;;-8.16;75.53
35489;BME280;21602;55.670;37.578;2023-11-21T07:14:37;98779.84;;;-8.11;75.63
35489;BME280;21602;55.670;37.578;2023-11-21T07:17:08;98769.56;;;-7.91;75.59
35489;BME280;21602;55.670;37.578;2023-11-21T07:19:34;98784.72;;;-7.87;74.29
35489;BME280;21602;55.670;37.578;2023-11-21T07:22:02;98782.53;;;-7.91;74.57
35489;BME280;21602;55.670;37.578;2023-11-21T07:24:28;98778.03;;;-7.89;74.31
35489;BME280;21602;55.670;37.578;2023-11-21T07:27:02;98782.38;;;-7.90;73.95
35489;BME280;21602;55.670;37.578;2023-11-21T07:29:34;98787.88;;;-7.83;74.33
35489;BME280;21602;55.670;37.578;2023-11-21T07:31:59;98799.59;;;-7.79;73.61
35489;BME280;21602;55.670;37.578;2023-11-21T07:35:27;98777.72;;;-7.96;73.91
35489;BME280;21602;55.670;37.578;2023-11-21T07:37:59;98780.53;;;-7.78;74.17
35489;BME280;21602;55.670;37.578;2023-11-21T07:40:26;98788.75;;;-7.73;73.37
35489;BME280;21602;55.670;37.578;2023-11-21T07:42:52;98779.78;;;-7.90;73.63
35489;BME280;21602;55.670;37.578;2023-11-21T07:45:18;98781.00;;;-7.94;73.56
35489;BME280;21602;55.670;37.578;2023-11-21T07:47:44;98777.91;;;-7.88;73.66
35489;BME280;21602;55.670;37.578;2023-11-21T07:50:18;98788.69;;;-7.83;73.34
35489;BME280;21602;55.670;37.578;2023-11-21T07:52:43;98783.66;;;-7.75;73.24
35489;BME280;21602;55.670;37.578;2023-11-21T07:55:12;98777.69;;;-7.65;72.90
35489;BME280;21602;55.670;37.578;2023-11-21T07:57:39;98781.06;;;-7.75;72.64
35489;BME280;21602;55.670;37.578;2023-11-21T08:00:07;98763.75;;;-7.74;72.64
35489;BME280;21602;55.670;37.578;2023-11-21T08:02:40;98766.66;;;-7.67;72.38
35489;BME280;21602;55.670;37.578;2023-11-21T08:05:13;98775.22;;;-7.77;72.74
35489;BME280;21602;55.670;37.578;2023-11-21T08:07:40;98767.44;;;-7.77;72.65
35489;BME280;21602;55.670;37.578;2023-11-21T08:10:06;98771.25;;;-7.81;71.85
35489;BME280;21602;55.670;37.578;2023-11-21T08:12:33;98774.09;;;-7.84;71.88
35489;BME280;21602;55.670;37.578;2023-11-21T08:14:59;98774.41;;;-7.77;71.92
35489;BME280;21602;55.670;37.578;2023-11-21T08:17:25;98776.72;;;-7.74;72.26
35489;BME280;21602;55.670;37.578;2023-11-21T08:19:51;98779.47;;;-7.66;72.48
35489;BME280;21602;55.670;37.578;2023-11-21T08:22:16;98781.66;;;-7.61;72.58
35489;BME280;21602;55.670;37.578;2023-11-21T08:24:43;98771.56;;;-7.64;71.77
35489;BME280;21602;55.670;37.578;2023-11-21T08:27:09;98782.63;;;-7.62;71.60
35489;BME280;21602;55.670;37.578;2023-11-21T08:29:35;98759.66;;;-7.77;71.92
35489;BME280;21602;55.670;37.578;2023-11-21T08:32:01;98770.44;;;-7.71;72.02
35489;BME280;21602;55.670;37.578;2023-11-21T08:34:27;98763.59;;;-7.82;71.85
35489;BME280;21602;55.670;37.578;2023-11-21T08:36:54;98765.28;;;-7.71;72.12
35489;BME280;21602;55.670;37.578;2023-11-21T08:39:20;98774.69;;;-7.70;71.33
35489;BME280;21602;55.670;37.578;2023-11-21T08:41:49;98777.84;;;-7.67;70.92
35489;BME280;21602;55.670;37.578;2023-11-21T08:44:16;98767.75;;;-7.60;71.58
35489;BME280;21602;55.670;37.578;2023-11-21T08:46:43;98760.41;;;-7.45;71.39
35489;BME280;21602;55.670;37.578;2023-11-21T08:49:11;98763.47;;;-7.31;71.44
35489;BME280;21602;55.670;37.578;2023-11-21T08:51:37;98753.34;;;-7.24;71.67
35489;BME280;21602;55.670;37.578;2023-11-21T08:54:03;98771.09;;;-7.19;71.59
35489;BME280;21602;55.670;37.578;2023-11-21T08:56:33;98762.38;;;-7.18;72.04
35489;BME280;21602;55.670;37.578;2023-11-21T08:58:59;98759.91;;;-7.39;72.57
35489;BME280;21602;55.670;37.578;2023-11-21T09:01:27;98773.94;;;-7.32;72.87
35489;BME280;21602;55.670;37.578;2023-11-21T09:03:53;98778.47;;;-7.34;72.97
35489;BME280;21602;55.670;37.578;2023-11-21T09:06:19;98777.66;;;-7.25;72.33
35489;BME280;21602;55.670;37.578;2023-11-21T09:08:44;98780.38;;;-7.17;72.63
35489;BME280;21602;55.670;37.578;2023-11-21T09:11:11;98778.34;;;-7.13;72.23
35489;BME280;21602;55.670;37.578;2023-11-21T09:13:36;98785.59;;;-7.07;71.92
35489;BME280;21602;55.670;37.578;2023-11-21T09:16:22;98789.41;;;-7.11;71.76
35489;BME280;21602;55.670;37.578;2023-11-21T09:18:54;98782.72;;;-7.04;72.00
35489;BME280;21602;55.670;37.578;2023-11-21T09:21:26;98797.34;;;-6.84;71.91
35489;BME280;21602;55.670;37.578;2023-11-21T09:23:53;98789.97;;;-6.59;70.93
35489;BME280;21602;55.670;37.578;2023-11-21T09:26:19;98785.44;;;-6.57;70.13
35489;BME280;21602;55.670;37.578;2023-11-21T09:28:45;98789.00;;;-6.68;69.85
35489;BME280;21602;55.670;37.578;2023-11-21T09:31:13;98792.13;;;-6.93;70.37
35489;BME280;21602;55.670;37.578;2023-11-21T09:33:42;98787.75;;;-7.03;70.83
35489;BME280;21602;55.670;37.578;2023-11-21T09:36:29;98790.25;;;-7.11;71.17
35489;BME280;21602;55.670;37.578;2023-11-21T09:38:57;98799.91;;;-7.03;71.14
35489;BME280;21602;55.670;37.578;2023-11-21T09:41:32;98795.97;;;-7.07;71.65
35489;BME280;21602;55.670;37.578;2023-11-21T09:44:00;98796.91;;;-6.99;70.76
35489;BME280;21602;55.670;37.578;2023-11-21T09:46:28;98787.09;;;-6.85;70.45
35489;BME280;21602;55.670;37.578;2023-11-21T09:48:55;98797.63;;;-6.67;69.38
35489;BME280;21602;55.670;37.578;2023-11-21T09:51:25;98796.66;;;-6.66;69.46
35489;BME280;21602;55.670;37.578;2023-11-21T09:53:59;98805.41;;;-6.87;70.79
35489;BME280;21602;55.670;37.578;2023-11-21T09:56:25;98801.44;;;-6.91;71.55
35489;BME280;21602;55.670;37.578;2023-11-21T09:58:52;98797.06;;;-7.00;71.77
35489;BME280;21602;55.670;37.578;2023-11-21T10:01:19;98802.09;;;-6.99;72.35
35489;BME280;21602;55.670;37.578;2023-11-21T10:03:45;98801.19;;;-6.88;72.58
35489;BME280;21602;55.670;37.578;2023-11-21T10:06:12;98808.81;;;-6.77;72.74
35489;BME280;21602;55.670;37.578;2023-11-21T10:08:40;98818.25;;;-6.66;72.11
35489;BME280;21602;55.670;37.578;2023-11-21T10:11:06;98808.16;;;-6.59;72.02
35489;BME280;21602;55.670;37.578;2023-11-21T10:13:32;98814.56;;;-6.54;71.88
35489;BME280;21602;55.670;37.578;2023-11-21T10:15:58;98814.41;;;-6.62;71.55
35489;BME280;21602;55.670;37.578;2023-11-21T10:18:25;98813.19;;;-6.77;71.68
35489;BME280;21602;55.670;37.578;2023-11-21T10:20:51;98817.69;;;-6.79;72.45
35489;BME280;21602;55.670;37.578;2023-11-21T10:23:21;98818.09;;;-6.74;72.62
35489;BME280;21602;55.670;37.578;2023-11-21T10:25:47;98807.19;;;-6.58;72.40
35489;BME280;21602;55.670;37.578;2023-11-21T10:28:14;98815.53;;;-6.64;71.79
35489;BME280;21602;55.670;37.578;2023-11-21T10:30:41;98795.03;;;-6.67;71.39
35489;BME280;21602;55.670;37.578;2023-11-21T10:33:07;98809.50;;;-6.75;71.67
35489;BME280;21602;55.670;37.578;2023-11-21T10:35:42;98812.09;;;-6.84;71.96
35489;BME280;21602;55.670;37.578;2023-11-21T10:38:12;98797.88;;;-6.90;72.16
35489;BME280;21602;55.670;37.578;2023-11-21T10:40:42;98814.25;;;-6.99;72.54
35489;BME280;21602;55.670;37.578;2023-11-21T10:43:10;98803.34;;;-7.03;72.81
35489;BME280;21602;55.670;37.578;2023-11-21T10:45:39;98811.97;;;-6.92;72.58
35489;BME280;21602;55.670;37.578;2023-11-21T10:48:08;98812.25;;;-6.76;72.37
35489;BME280;21602;55.670;37.578;2023-11-21T10:50:36;98805.66;;;-6.71;71.54
35489;BME280;21602;55.670;37.578;2023-11-21T10:53:05;98810.59;;;-6.58;71.22
35489;BME280;21602;55.670;37.578;2023-11-21T10:55:31;98810.34;;;-6.55;71.00
35489;BME280;21602;55.670;37.578;2023-11-21T10:57:58;98802.41;;;-6.63;71.67
35489;BME280;21602;55.670;37.578;2023-11-21T11:00:24;98809.38;;;-6.54;71.35
35489;BME280;21602;55.670;37.578;2023-11-21T11:02:53;98802.94;;;-6.59;71.52
35489;BME280;21602;55.670;37.578;2023-11-21T11:05:23;98812.94;;;-6.64;71.93
35489;BME280;21602;55.670;37.578;2023-11-21T11:07:59;98803.63;;;-6.57;72.28
35489;BME280;21602;55.670;37.578;2023-11-21T11:10:28;98811.00;;;-6.53;72.31
35489;BME280;21602;55.670;37.578;2023-11-21T11:12:54;98809.06;;;-6.41;72.86
35489;BME280;21602;55.670;37.578;2023-11-21T11:15:21;98807.72;;;-6.45;72.92
35489;BME280;21602;55.670;37.578;2023-11-21T11:17:47;98809.91;;;-6.50;72.84
35489;BME280;21602;55.670;37.578;2023-11-21T11:20:14;98814.97;;;-6.58;73.23
35489;BME280;21602;55.670;37.578;2023-11-21T11:25:15;98820.56;;;-6.63;73.08
35489;BME280;21602;55.670;37.578;2023-11-21T11:30:23;98825.22;;;-6.66;72.21
35489;BME280;21602;55.670;37.578;2023-11-21T11:32:58;98826.59;;;-6.62;72.19
35489;BME280;21602;55.670;37.578;2023-11-21T11:38:07;98837.22;;;-6.65;70.92
35489;BME280;21602;55.670;37.578;2023-11-21T11:40:46;98835.19;;;-6.72;71.28
35489;BME280;21602;55.670;37.578;2023-11-21T11:43:24;98827.53;;;-6.83;71.25
35489;BME280;21602;55.670;37.578;2023-11-21T11:45:55;98832.84;;;-6.94;71.74
35489;BME280;21602;55.670;37.578;2023-11-21T11:48:21;98834.50;;;-6.93;71.69
35489;BME280;21602;55.670;37.578;2023-11-21T11:51:04;98846.78;;;-6.85;71.79
35489;BME280;21602;55.670;37.578;2023-11-21T11:58:54;98842.41;;;-6.46;70.21
35489;BME280;21602;55.670;37.578;2023-11-21T12:01:21;98843.25;;;-6.55;69.99
35489;BME280;21602;55.670;37.578;2023-11-21T12:06:34;98854.88;;;-6.69;70.78
35489;BME280;21602;55.670;37.578;2023-11-21T12:09:01;98847.91;;;-6.68;70.71
35489;BME280;21602;55.670;37.578;2023-11-21T12:11:40;98861.13;;;-6.81;70.82
35489;BME280;21602;55.670;37.578;2023-11-21T12:14:09;98879.84;;;-6.97;71.18
35489;BME280;21602;55.670;37.578;2023-11-21T12:16:35;98872.03;;;-7.07;71.36
35489;BME280;21602;55.670;37.578;2023-11-21T12:19:00;98861.78;;;-7.08;71.52
35489;BME280;21602;55.670;37.578;2023-11-21T12:21:26;98880.34;;;-7.03;71.77
35489;BME280;21602;55.670;37.578;2023-11-21T12:23:52;98874.91;;;-7.00;71.16
35489;BME280;21602;55.670;37.578;2023-11-21T12:26:17;98863.28;;;-7.06;71.13
35489;BME280;21602;55.670;37.578;2023-11-21T12:28:43;98862.31;;;-7.14;71.52
35489;BME280;21602;55.670;37.578;2023-11-21T12:31:09;98860.38;;;-7.12;71.54
35489;BME280;21602;55.670;37.578;2023-11-21T12:33:36;98862.34;;;-7.05;71.34
35489;BME280;21602;55.670;37.578;2023-11-21T12:36:06;98869.13;;;-7.13;71.24
35489;BME280;21602;55.670;37.578;2023-11-21T12:38:41;98867.38;;;-7.03;71.08
35489;BME280;21602;55.670;37.578;2023-11-21T12:41:07;98870.94;;;-6.94;70.86
35489;BME280;21602;55.670;37.578;2023-11-21T12:43:33;98871.75;;;-6.94;70.47
35489;BME280;21602;55.670;37.578;2023-11-21T12:46:07;98877.50;;;-6.90;70.47
35489;BME280;21602;55.670;37.578;2023-11-21T12:48:37;98871.63;;;-7.12;70.76
35489;BME280;21602;55.670;37.578;2023-11-21T12:51:07;98866.03;;;-7.07;71.07
35489;BME280;21602;55.670;37.578;2023-11-21T12:53:34;98874.22;;;-7.02;71.04
35489;BME280;21602;55.670;37.578;2023-11-21T12:56:09;98882.13;;;-7.04;70.81
35489;BME280;21602;55.670;37.578;2023-11-21T12:58:35;98870.34;;;-7.17;71.81
35489;BME280;21602;55.670;37.578;2023-11-21T13:01:03;98860.66;;;-7.25;71.92
35489;BME280;21602;55.670;37.578;2023-11-21T13:03:29;98869.84;;;-7.11;71.84
35489;BME280;21602;55.670;37.578;2023-11-21T13:05:56;98869.72;;;-7.00;72.04
35489;BME280;21602;55.670;37.578;2023-11-21T13:08:24;98868.34;;;-6.94;71.96
35489;BME280;21602;55.670;37.578;2023-11-21T13:10:52;98882.53;;;-6.99;71.76
35489;BME280;21602;55.670;37.578;2023-11-21T13:13:19;98893.31;;;-7.03;72.29